Time;durP1;ratioP1;P1;durP2;ratioP2;P2;SDS_P1;SDS_P2;PMS_P1;PMS_P2;Temp;Humidity;BMP_temperature;BMP_pressure;BME280_temperature;BME280_humidity;BME280_pressure;Samples;Min_cycle;Max_cycle;Signal;HPM_P1;HPM_P2
2021/04/01 00:01:20;;;;;;;85.80;54.57;;;6.60;99.90;;;;;;4928593;29;20216;-82
2021/04/01 00:03:49;;;;;;;83.97;52.00;;;6.50;99.90;;;;;;4905996;29;20505;-83
2021/04/01 00:06:17;;;;;;;84.67;54.17;;;6.50;99.90;;;;;;4905628;29;20248;-82
2021/04/01 00:08:44;;;;;;;91.03;54.53;;;6.60;99.90;;;;;;4924062;29;20236;-81
2021/04/01 00:11:13;;;;;;;90.97;56.37;;;6.60;99.90;;;;;;4918018;29;20259;-83
2021/04/01 00:13:41;;;;;;;85.90;54.93;;;6.60;99.90;;;;;;4918716;29;20212;-82
2021/04/01 00:16:09;;;;;;;87.33;56.00;;;6.60;99.90;;;;;;4922864;29;20204;-81
2021/04/01 00:18:37;;;;;;;86.60;54.30;;;6.60;99.90;;;;;;4912516;29;20482;-82
2021/04/01 00:21:06;;;;;;;85.60;56.07;;;6.60;99.90;;;;;;4917785;29;20439;-83
2021/04/01 00:23:33;;;;;;;89.40;57.13;;;6.60;99.90;;;;;;4917641;29;20256;-84
2021/04/01 00:26:01;;;;;;;89.47;54.53;;;6.60;99.90;;;;;;4938227;28;20213;-84
2021/04/01 00:28:28;;;;;;;87.33;56.67;;;6.50;99.90;;;;;;4929471;28;20186;-82
2021/04/01 00:30:56;;;;;;;85.23;54.27;;;6.50;99.90;;;;;;4927195;29;20203;-83
2021/04/01 00:33:23;;;;;;;84.43;53.57;;;6.50;99.90;;;;;;4917569;29;20753;-83
2021/04/01 00:35:51;;;;;;;88.17;55.47;;;6.40;99.90;;;;;;4928093;29;20266;-81
2021/04/01 00:38:20;;;;;;;83.40;55.77;;;6.60;99.90;;;;;;4932734;29;20219;-82
2021/04/01 00:40:48;;;;;;;82.40;54.97;;;6.40;99.90;;;;;;4934615;29;20205;-82
2021/04/01 00:43:15;;;;;;;90.00;57.03;;;6.30;99.90;;;;;;4934288;29;20244;-82
2021/04/01 00:45:43;;;;;;;85.23;58.90;;;6.30;99.90;;;;;;4928832;29;20214;-81
2021/04/01 00:48:11;;;;;;;86.43;58.20;;;6.30;99.90;;;;;;4935133;29;20267;-83
2021/04/01 00:50:39;;;;;;;92.93;56.87;;;6.30;99.90;;;;;;4931632;29;20493;-82
2021/04/01 00:53:06;;;;;;;94.47;60.30;;;6.40;99.90;;;;;;4928807;29;20801;-81
2021/04/01 00:55:34;;;;;;;93.50;59.50;;;6.40;99.90;;;;;;4930313;29;20346;-83
2021/04/01 00:58:03;;;;;;;95.00;60.90;;;6.40;99.90;;;;;;4934884;29;20215;-84
2021/04/01 01:00:33;;;;;;;93.23;59.60;;;6.40;99.90;;;;;;4931807;29;20210;-82
2021/04/01 01:03:02;;;;;;;97.37;61.90;;;6.40;99.90;;;;;;4933396;29;20224;-83
2021/04/01 01:05:33;;;;;;;96.57;62.67;;;6.40;99.90;;;;;;4934831;29;20215;-82
2021/04/01 01:08:02;;;;;;;87.50;58.27;;;6.40;99.90;;;;;;4927579;29;20203;-82
2021/04/01 01:10:32;;;;;;;101.60;58.90;;;6.40;99.90;;;;;;4913034;29;20215;-83
2021/04/01 01:13:02;;;;;;;92.57;60.27;;;6.30;99.90;;;;;;4916650;29;20199;-82
2021/04/01 01:15:30;;;;;;;98.40;64.80;;;6.30;99.90;;;;;;4928099;29;20203;-82
2021/04/01 01:17:57;;;;;;;101.00;63.47;;;6.20;99.90;;;;;;4912334;29;20233;-82
2021/04/01 01:20:26;;;;;;;96.53;63.73;;;6.20;99.90;;;;;;4913323;29;20213;-83
2021/04/01 01:23:17;;;;;;;100.90;62.63;;;6.10;99.90;;;;;;4919270;29;20202;-81
2021/04/01 01:25:46;;;;;;;93.77;61.93;;;6.20;99.90;;;;;;4913483;29;20268;-82
2021/04/01 01:28:14;;;;;;;97.40;62.50;;;6.00;99.90;;;;;;4906972;29;20210;-81
2021/04/01 01:30:42;;;;;;;95.57;63.47;;;5.90;99.90;;;;;;4912670;29;20433;-81
2021/04/01 01:33:16;;;;;;;98.90;64.10;;;5.90;99.90;;;;;;4913564;29;20204;-82
2021/04/01 01:35:46;;;;;;;98.83;63.97;;;5.90;99.90;;;;;;4910347;29;20668;-81
2021/04/01 01:38:15;;;;;;;101.60;63.87;;;5.90;99.90;;;;;;4913408;29;20233;-81
2021/04/01 01:40:43;;;;;;;107.23;67.47;;;6.00;99.90;;;;;;4911788;29;20771;-82
2021/04/01 01:43:13;;;;;;;104.93;68.23;;;6.00;99.90;;;;;;4914312;29;20572;-84
2021/04/01 01:45:44;;;;;;;114.50;69.47;;;6.00;99.90;;;;;;4909937;29;20281;-82
2021/04/01 01:48:12;;;;;;;99.53;65.77;;;6.00;99.90;;;;;;4912444;29;20779;-83
2021/04/01 01:50:41;;;;;;;99.37;65.77;;;5.90;99.90;;;;;;4926285;28;20302;-82
2021/04/01 01:53:10;;;;;;;89.37;60.93;;;5.80;99.90;;;;;;4932444;29;20499;-83
2021/04/01 01:55:39;;;;;;;97.73;64.03;;;5.70;99.90;;;;;;4929731;28;20470;-83
2021/04/01 01:58:07;;;;;;;96.23;62.33;;;5.60;99.90;;;;;;4916602;29;20242;-84
2021/04/01 02:00:39;;;;;;;109.50;65.67;;;5.60;99.90;;;;;;4910775;29;20575;-83
2021/04/01 02:03:08;;;;;;;106.47;67.17;;;5.50;99.90;;;;;;4911936;29;20255;-82
2021/04/01 02:05:37;;;;;;;108.27;69.07;;;5.50;99.90;;;;;;4907928;29;20206;-83
2021/04/01 02:08:05;;;;;;;115.60;72.57;;;5.50;99.90;;;;;;4916649;29;20234;-82
2021/04/01 02:10:34;;;;;;;120.40;74.23;;;5.50;99.90;;;;;;4913558;29;20257;-83
2021/04/01 02:13:03;;;;;;;115.27;74.03;;;5.40;99.90;;;;;;4909911;29;20560;-83
2021/04/01 02:15:33;;;;;;;119.53;74.70;;;5.50;99.90;;;;;;4908208;29;20285;-82
2021/04/01 02:18:06;;;;;;;124.30;75.33;;;5.60;99.90;;;;;;4907295;29;20305;-84
2021/04/01 02:20:40;;;;;;;123.23;75.73;;;5.80;99.90;;;;;;4910451;29;20237;-82
2021/04/01 02:23:12;;;;;;;130.53;79.37;;;5.80;99.90;;;;;;4914096;29;20202;-83
2021/04/01 02:25:40;;;;;;;118.13;75.20;;;5.80;99.90;;;;;;4909347;29;20271;-84
2021/04/01 02:28:09;;;;;;;111.83;75.60;;;5.80;99.90;;;;;;4915785;29;20202;-81
2021/04/01 02:30:39;;;;;;;121.27;77.17;;;5.80;99.90;;;;;;4910113;29;20203;-83
2021/04/01 02:33:08;;;;;;;111.93;71.43;;;5.80;99.90;;;;;;4912597;29;20218;-82
2021/04/01 02:35:37;;;;;;;112.27;72.10;;;5.70;99.90;;;;;;4914236;29;20475;-82
2021/04/01 02:38:05;;;;;;;113.50;74.27;;;5.60;99.90;;;;;;4911084;29;20365;-84
2021/04/01 02:40:34;;;;;;;117.97;74.37;;;5.50;99.90;;;;;;4923717;29;20193;-82
2021/04/01 02:43:02;;;;;;;119.53;76.80;;;5.50;99.90;;;;;;4916616;29;20218;-82
2021/04/01 02:45:30;;;;;;;120.20;77.13;;;5.50;99.90;;;;;;4912592;29;20207;-82
2021/04/01 02:47:58;;;;;;;119.10;74.10;;;5.50;99.90;;;;;;4911543;29;20330;-82
2021/04/01 02:50:27;;;;;;;114.00;73.93;;;5.50;99.90;;;;;;4921008;29;20209;-83
2021/04/01 02:52:54;;;;;;;114.50;73.73;;;5.30;99.90;;;;;;4924619;29;20227;-82
2021/04/01 02:55:22;;;;;;;133.33;82.33;;;5.30;99.90;;;;;;4933707;28;20205;-82
2021/04/01 02:57:50;;;;;;;141.27;85.60;;;5.30;99.90;;;;;;4922699;29;20293;-82
2021/04/01 03:00:22;;;;;;;136.13;83.53;;;5.20;99.90;;;;;;4913086;29;20202;-82
2021/04/01 03:02:53;;;;;;;134.37;81.53;;;5.10;99.90;;;;;;4912454;29;20626;-83
2021/04/01 03:05:21;;;;;;;133.53;81.10;;;5.10;99.90;;;;;;4892095;29;20388;-82
2021/04/01 03:07:50;;;;;;;144.10;86.87;;;5.10;99.90;;;;;;4908642;29;20593;-83
2021/04/01 03:10:17;;;;;;;133.27;82.17;;;5.10;99.90;;;;;;4915696;29;20460;-82
2021/04/01 03:12:45;;;;;;;143.73;86.33;;;5.10;99.90;;;;;;4921831;28;20278;-82
2021/04/01 03:15:13;;;;;;;156.67;90.03;;;5.10;99.90;;;;;;4923423;28;20229;-83
2021/04/01 03:17:42;;;;;;;150.53;88.37;;;5.10;99.90;;;;;;4936718;28;20258;-82
2021/04/01 03:20:11;;;;;;;169.80;99.40;;;5.20;99.90;;;;;;4936126;28;20194;-83
2021/04/01 03:22:39;;;;;;;216.93;121.40;;;5.00;99.90;;;;;;4926323;28;20509;-82
2021/04/01 03:25:11;;;;;;;193.63;111.50;;;5.00;99.90;;;;;;4926055;29;20504;-82
2021/04/01 03:27:39;;;;;;;172.23;102.97;;;4.90;99.90;;;;;;4928123;29;20207;-82
2021/04/01 03:30:11;;;;;;;149.27;93.77;;;4.90;99.90;;;;;;4920032;29;20214;-82
2021/04/01 03:32:40;;;;;;;159.17;96.13;;;5.00;99.90;;;;;;4916597;29;20202;-82
2021/04/01 03:35:10;;;;;;;144.67;91.33;;;5.00;99.90;;;;;;4912984;29;20955;-83
2021/04/01 03:37:38;;;;;;;153.20;93.07;;;5.00;99.90;;;;;;4914292;29;20646;-81
2021/04/01 03:40:07;;;;;;;152.43;94.67;;;5.10;99.90;;;;;;4910918;29;20217;-82
2021/04/01 03:42:37;;;;;;;141.93;91.27;;;5.10;99.90;;;;;;4914701;29;20297;-82
2021/04/01 03:45:09;;;;;;;136.87;86.60;;;5.10;99.90;;;;;;4910160;29;20225;-83
2021/04/01 03:47:37;;;;;;;143.63;88.57;;;5.10;99.90;;;;;;4916680;29;20576;-83
2021/04/01 03:50:05;;;;;;;137.83;91.00;;;5.00;99.90;;;;;;4915335;29;20577;-82
2021/04/01 03:52:33;;;;;;;126.63;84.30;;;5.00;99.90;;;;;;4916116;29;20225;-83
2021/04/01 03:55:01;;;;;;;123.33;81.40;;;5.10;99.90;;;;;;4916042;29;20646;-83
2021/04/01 03:57:29;;;;;;;129.97;82.03;;;5.10;99.90;;;;;;4917579;29;20202;-82
2021/04/01 03:59:59;;;;;;;124.23;80.53;;;5.10;99.90;;;;;;4911905;29;20280;-83
2021/04/01 04:02:42;;;;;;;123.83;80.50;;;5.00;99.90;;;;;;4912772;29;20195;-83
2021/04/01 04:05:21;;;;;;;125.23;77.67;;;5.00;99.90;;;;;;4912049;29;20207;-83
2021/04/01 04:10:42;;;;;;;116.80;77.03;;;4.90;99.90;;;;;;4940807;29;20197;-82
2021/04/01 04:13:16;;;;;;;118.40;75.53;;;5.10;99.90;;;;;;4937988;28;20237;-82
2021/04/01 04:15:48;;;;;;;116.53;76.27;;;4.90;99.90;;;;;;4937809;28;20221;-84
2021/04/01 04:18:17;;;;;;;114.20;76.00;;;4.90;99.90;;;;;;4936692;28;20203;-82
2021/04/01 04:20:45;;;;;;;125.20;79.57;;;4.90;99.90;;;;;;4938336;29;20203;-84
2021/04/01 04:23:14;;;;;;;139.87;85.20;;;4.90;99.90;;;;;;4935791;28;20262;-82
2021/04/01 04:25:42;;;;;;;138.23;85.67;;;4.90;99.90;;;;;;4939178;29;20452;-83
2021/04/01 04:28:15;;;;;;;125.17;81.17;;;5.00;99.90;;;;;;4938264;29;20199;-83
2021/04/01 04:30:43;;;;;;;124.53;79.57;;;4.90;99.90;;;;;;4940010;28;20186;-82
2021/04/01 04:33:12;;;;;;;125.47;82.37;;;5.00;99.90;;;;;;4936642;28;20190;-82
2021/04/01 04:35:39;;;;;;;133.63;83.63;;;5.00;99.90;;;;;;4923215;29;20328;-83
2021/04/01 04:38:07;;;;;;;130.60;84.67;;;5.10;99.90;;;;;;4935633;28;20447;-82
2021/04/01 04:40:35;;;;;;;138.67;86.33;;;5.10;99.90;;;;;;4941826;28;20198;-81
2021/04/01 04:43:02;;;;;;;138.10;87.07;;;5.20;99.90;;;;;;4940420;28;20554;-86
2021/04/01 04:45:30;;;;;;;131.70;84.53;;;5.20;99.90;;;;;;4934879;29;20206;-85
2021/04/01 04:47:57;;;;;;;131.93;88.70;;;5.30;99.90;;;;;;4939447;28;20193;-83
2021/04/01 04:50:26;;;;;;;137.10;90.47;;;5.30;99.90;;;;;;4926761;29;20201;-83
2021/04/01 04:52:56;;;;;;;140.43;88.83;;;5.40;99.90;;;;;;4919956;29;20289;-84
2021/04/01 04:55:25;;;;;;;143.03;91.33;;;5.60;99.90;;;;;;4914598;29;20265;-82
2021/04/01 04:57:57;;;;;;;142.03;92.20;;;5.50;99.90;;;;;;4916290;29;20229;-82
2021/04/01 05:06:13;;;;;;;139.43;89.93;;;5.70;99.90;;;;;;5121586;27;20248;-83
2021/04/01 05:08:41;;;;;;;138.80;89.97;;;5.70;99.90;;;;;;5123694;27;20841;-84
2021/04/01 05:11:09;;;;;;;141.90;92.73;;;5.90;99.90;;;;;;5139711;27;20204;-84
2021/04/01 05:13:37;;;;;;;150.63;95.23;;;6.00;99.90;;;;;;5142328;27;20351;-83
2021/04/01 05:16:07;;;;;;;146.53;93.53;;;6.10;99.90;;;;;;5133495;27;20202;-84
2021/04/01 05:18:35;;;;;;;141.40;94.07;;;6.20;99.90;;;;;;5138249;28;20207;-84
2021/04/01 05:21:05;;;;;;;146.93;96.67;;;6.30;99.90;;;;;;5135088;27;20261;-86
2021/04/01 05:23:37;;;;;;;140.03;93.57;;;6.40;99.90;;;;;;5138356;27;20216;-84
2021/04/01 05:29:04;;;;;;;140.97;94.00;;;6.70;99.90;;;;;;5132480;28;20197;-86
2021/04/01 05:31:35;;;;;;;149.83;95.27;;;6.90;99.90;;;;;;5128110;27;20202;-82
2021/04/01 05:34:04;;;;;;;139.77;94.70;;;7.00;99.90;;;;;;5114937;27;20203;-83
2021/04/01 05:36:39;;;;;;;142.90;90.80;;;7.20;99.90;;;;;;5124956;27;20210;-82
2021/04/01 05:39:10;;;;;;;138.23;90.30;;;7.40;99.90;;;;;;5117210;27;20201;-85
2021/04/01 05:41:39;;;;;;;131.03;90.83;;;7.50;99.90;;;;;;5119320;27;20319;-83
2021/04/01 05:44:14;;;;;;;126.57;87.13;;;7.60;99.90;;;;;;5115843;27;20706;-82
2021/04/01 05:46:51;;;;;;;119.43;84.27;;;7.70;99.90;;;;;;5117268;27;20252;-83
2021/04/01 05:49:33;;;;;;;123.30;83.40;;;7.80;99.90;;;;;;5120374;27;20206;-81
2021/04/01 05:58:26;;;;;;;113.40;79.13;;;8.40;99.90;;;;;;5107692;27;20287;-83
2021/04/01 06:03:57;;;;;;;102.00;70.87;;;8.90;99.90;;;;;;5091202;27;20451;-82
2021/04/01 06:06:29;;;;;;;95.17;70.57;;;9.00;99.90;;;;;;5118481;27;20449;-83
2021/04/01 06:09:02;;;;;;;93.47;67.23;;;9.30;99.90;;;;;;5136314;27;20206;-83
2021/04/01 06:11:31;;;;;;;85.17;64.93;;;9.50;99.90;;;;;;5127323;27;20204;-81
2021/04/01 06:14:09;;;;;;;76.57;59.93;;;9.70;99.90;;;;;;5122960;27;20191;-83
2021/04/01 06:16:38;;;;;;;77.00;57.17;;;9.80;99.90;;;;;;5109140;27;20227;-84
2021/04/01 06:19:10;;;;;;;71.13;53.37;;;10.00;99.90;;;;;;5099557;27;20257;-82
2021/04/01 06:21:41;;;;;;;70.70;52.73;;;10.20;99.90;;;;;;5100010;28;20333;-84
2021/04/01 06:24:25;;;;;;;70.10;53.07;;;10.40;99.90;;;;;;5102861;27;20215;-83
2021/04/01 06:26:57;;;;;;;63.40;49.20;;;10.70;99.90;;;;;;5096161;27;20203;-83
2021/04/01 06:29:27;;;;;;;64.03;49.83;;;10.90;99.90;;;;;;5090826;28;20290;-81
2021/04/01 06:31:57;;;;;;;63.87;47.57;;;10.90;99.90;;;;;;5101764;28;20751;-82
2021/04/01 06:34:32;;;;;;;61.43;46.50;;;11.10;99.90;;;;;;5091906;27;20200;-81
2021/04/01 06:37:02;;;;;;;62.43;47.13;;;11.40;99.90;;;;;;5099134;27;20235;-83
2021/04/01 06:42:31;;;;;;;62.43;46.83;;;11.70;99.90;;;;;;5122869;28;20261;-82
2021/04/01 06:45:18;;;;;;;58.50;44.57;;;11.90;99.90;;;;;;5118353;28;20196;-80
2021/04/01 06:47:51;;;;;;;57.80;44.10;;;12.30;99.90;;;;;;5105954;28;20722;-82
2021/04/01 06:50:27;;;;;;;57.10;45.17;;;12.40;99.90;;;;;;5108622;28;20196;-82
2021/04/01 06:53:02;;;;;;;58.33;44.70;;;12.80;99.90;;;;;;5111152;27;20200;-83
2021/04/01 06:55:59;;;;;;;57.53;44.63;;;13.10;99.90;;;;;;5109076;28;20226;-84
2021/04/01 06:58:34;;;;;;;65.10;45.30;;;13.30;99.90;;;;;;5095428;27;20226;-82
2021/04/01 07:01:29;;;;;;;59.90;43.70;;;13.70;99.90;;;;;;5093841;27;20219;-83
2021/04/01 07:04:05;;;;;;;54.43;41.80;;;14.00;95.80;;;;;;5098380;28;20203;-84
2021/04/01 07:06:35;;;;;;;54.67;42.43;;;14.20;92.80;;;;;;5093785;28;20202;-81
2021/04/01 07:09:27;;;;;;;54.47;44.73;;;14.30;90.60;;;;;;5097615;27;20224;-83
2021/04/01 07:12:14;;;;;;;56.17;44.70;;;14.20;90.60;;;;;;5093648;28;20288;-82
2021/04/01 07:14:43;;;;;;;56.23;44.30;;;14.00;90.90;;;;;;5098842;28;20200;-85
2021/04/01 07:17:16;;;;;;;60.47;44.23;;;14.00;91.00;;;;;;5106935;27;20204;-84
2021/04/01 07:19:55;;;;;;;56.10;45.17;;;13.90;90.90;;;;;;5117102;28;20633;-83
2021/04/01 07:22:59;;;;;;;58.43;45.80;;;13.90;91.10;;;;;;5109786;28;20230;-84
2021/04/01 07:32:00;;;;;;;62.67;47.37;;;13.50;91.50;;;;;;5010540;28;20205;-82
2021/04/01 07:34:44;;;;;;;61.70;47.43;;;13.60;91.60;;;;;;5099563;27;20289;-84
2021/04/01 07:48:26;;;;;;;60.03;47.80;;;14.30;90.60;;;;;;5108617;28;20633;-82
2021/04/01 07:50:55;;;;;;;64.07;48.37;;;14.40;90.40;;;;;;5115189;27;20184;-83
2021/04/01 07:53:25;;;;;;;62.17;48.23;;;14.40;90.40;;;;;;5120766;28;20418;-83
2021/04/01 07:56:14;;;;;;;66.50;47.40;;;14.40;90.30;;;;;;5115771;27;20184;-82
2021/04/01 07:58:57;;;;;;;60.63;46.33;;;14.50;90.40;;;;;;5109628;28;20202;-81
2021/04/01 08:01:42;;;;;;;64.77;47.67;;;14.60;90.40;;;;;;5090519;28;20276;-83
2021/04/01 08:04:10;;;;;;;62.80;45.13;;;14.80;90.10;;;;;;5090477;28;21380;-80
2021/04/01 08:06:38;;;;;;;58.60;44.47;;;14.90;89.00;;;;;;5107143;27;20213;-82
2021/04/01 08:09:10;;;;;;;59.27;43.60;;;15.00;88.20;;;;;;5103957;27;20268;-84
2021/04/01 08:11:44;;;;;;;56.87;44.73;;;15.10;87.30;;;;;;5106488;28;20203;-83
2021/04/01 08:14:15;;;;;;;59.27;44.40;;;15.20;87.00;;;;;;5095491;28;20200;-81
2021/04/01 08:16:49;;;;;;;61.80;44.40;;;15.50;87.60;;;;;;5092559;27;20200;-82
2021/04/01 08:19:19;;;;;;;54.83;39.40;;;15.70;87.60;;;;;;5093503;27;20196;-82
2021/04/01 08:22:14;;;;;;;56.10;39.33;;;16.00;86.80;;;;;;5098509;28;20721;-81
2021/04/01 08:25:04;;;;;;;42.90;27.43;;;16.20;86.80;;;;;;5062923;27;21031;-82
2021/04/01 08:28:11;;;;;;;35.03;23.30;;;16.50;84.80;;;;;;5089502;28;20204;-83
2021/04/01 08:31:37;;;;;;;36.20;24.27;;;16.60;83.60;;;;;;5092226;28;20215;-83
2021/04/01 08:34:36;;;;;;;29.77;23.60;;;16.70;83.00;;;;;;5098930;28;20207;-81
2021/04/01 08:37:28;;;;;;;31.60;22.30;;;16.80;82.50;;;;;;5093319;28;20458;-82
2021/04/01 08:40:16;;;;;;;32.73;23.30;;;16.90;82.00;;;;;;5095856;27;20237;-84
2021/04/01 08:43:46;;;;;;;34.53;23.43;;;17.00;81.60;;;;;;5088734;28;20297;-80
2021/04/01 08:47:04;;;;;;;31.73;22.37;;;17.10;81.80;;;;;;5095281;27;20727;-81
2021/04/01 08:49:44;;;;;;;36.83;23.43;;;17.20;81.40;;;;;;5093050;27;20451;-82
2021/04/01 08:52:48;;;;;;;33.60;21.63;;;17.40;81.20;;;;;;5110146;28;20191;-82
2021/04/01 08:55:18;;;;;;;30.00;20.90;;;17.50;80.40;;;;;;5092898;27;20192;-85
2021/04/01 08:58:02;;;;;;;33.57;21.13;;;17.60;79.90;;;;;;5094063;28;20192;-81
2021/04/01 09:00:31;;;;;;;31.70;21.20;;;17.80;79.60;;;;;;5088851;28;20384;-83
2021/04/01 09:03:02;;;;;;;31.57;22.87;;;18.00;79.70;;;;;;5105755;27;20208;-81
2021/04/01 09:05:31;;;;;;;35.10;21.70;;;18.30;79.70;;;;;;5109810;27;20231;-81
2021/04/01 09:08:04;;;;;;;27.67;20.03;;;18.50;79.30;;;;;;5101977;28;20942;-82
2021/04/01 09:10:36;;;;;;;26.60;19.30;;;18.70;77.80;;;;;;5104530;27;20196;-81
2021/04/01 09:13:19;;;;;;;28.40;18.67;;;18.80;77.50;;;;;;5098453;28;20711;-81
2021/04/01 09:15:52;;;;;;;25.97;18.30;;;18.80;76.80;;;;;;5103245;28;20200;-81
2021/04/01 09:19:03;;;;;;;26.53;17.77;;;18.80;76.00;;;;;;5110116;28;20189;-80
2021/04/01 09:22:20;;;;;;;26.30;17.50;;;18.90;76.10;;;;;;5115332;28;20224;-82
2021/04/01 09:25:00;;;;;;;28.83;17.57;;;19.00;76.10;;;;;;5104813;28;20208;-84
2021/04/01 09:27:51;;;;;;;25.20;15.97;;;19.10;74.80;;;;;;5125978;28;20192;-82
2021/04/01 09:30:29;;;;;;;28.33;16.90;;;19.10;75.10;;;;;;5124144;27;20196;-85
2021/04/01 09:33:11;;;;;;;25.53;17.10;;;19.20;74.30;;;;;;5125858;27;20239;-81
2021/04/01 09:36:08;;;;;;;21.27;15.23;;;19.30;74.00;;;;;;5113134;28;20200;-84
2021/04/01 09:38:38;;;;;;;26.50;15.87;;;19.40;73.40;;;;;;5111803;27;20251;-80
2021/04/01 09:41:06;;;;;;;25.80;15.83;;;19.40;73.40;;;;;;5103755;27;20187;-82
2021/04/01 09:43:34;;;;;;;25.40;15.50;;;19.40;73.20;;;;;;5101868;27;20224;-85
2021/04/01 09:46:14;;;;;;;23.53;15.27;;;19.40;72.90;;;;;;5102329;28;20195;-83
2021/04/01 09:48:46;;;;;;;24.75;13.85;;;19.30;72.80;;;;;;5100492;28;20204;-81
2021/04/01 09:51:22;;;;;;;22.07;13.73;;;19.30;73.10;;;;;;5097928;28;20192;-82
2021/04/01 09:53:53;;;;;;;23.30;14.32;;;19.30;73.40;;;;;;5103799;27;20412;-82
2021/04/01 09:56:23;;;;;;;26.88;14.82;;;19.30;72.80;;;;;;5104725;27;20367;-83
2021/04/01 09:58:59;;;;;;;24.48;15.43;;;19.30;73.10;;;;;;5114595;28;20534;-81
2021/04/01 10:01:35;;;;;;;21.65;14.82;;;19.40;72.60;;;;;;5120516;28;20241;-84
2021/04/01 10:04:07;;;;;;;24.87;15.13;;;19.50;72.60;;;;;;5123109;28;20482;-83
2021/04/01 10:06:43;;;;;;;20.90;15.07;;;19.50;72.60;;;;;;5118796;28;20400;-82
2021/04/01 10:09:14;;;;;;;23.00;14.77;;;19.50;73.50;;;;;;5118976;27;20200;-83
2021/04/01 10:14:51;;;;;;;22.90;15.63;;;19.70;72.60;;;;;;5113082;28;20296;-83
2021/04/01 10:17:24;;;;;;;22.90;14.77;;;19.70;72.50;;;;;;5111624;28;20192;-78
2021/04/01 10:19:55;;;;;;;20.83;14.27;;;19.80;72.10;;;;;;5111278;28;20196;-80
2021/04/01 10:22:25;;;;;;;23.40;13.88;;;19.80;72.00;;;;;;5109105;28;20223;-80
2021/04/01 10:25:13;;;;;;;25.73;14.75;;;19.80;71.40;;;;;;5106574;28;20193;-81
2021/04/01 10:27:52;;;;;;;23.00;14.63;;;19.80;71.50;;;;;;5114239;27;20868;-82
2021/04/01 10:30:23;;;;;;;25.77;14.43;;;19.90;71.70;;;;;;5109596;28;20250;-81
2021/04/01 10:32:53;;;;;;;21.55;13.32;;;20.00;71.60;;;;;;5117136;28;20204;-80
2021/04/01 10:35:24;;;;;;;23.70;13.93;;;20.10;71.00;;;;;;5108957;27;20204;-80
2021/04/01 10:37:56;;;;;;;24.52;14.18;;;20.30;70.60;;;;;;5110916;28;20196;-79
2021/04/01 10:40:25;;;;;;;24.33;14.10;;;20.40;70.20;;;;;;5117226;27;20208;-83
2021/04/01 10:43:05;;;;;;;25.70;14.27;;;20.60;69.20;;;;;;5109747;28;20219;-79
2021/04/01 10:45:37;;;;;;;23.73;13.90;;;20.50;69.10;;;;;;5103825;28;20192;-79
2021/04/01 10:48:22;;;;;;;22.77;13.77;;;20.50;69.30;;;;;;5106203;27;20467;-81
2021/04/01 10:50:53;;;;;;;19.60;12.27;;;20.50;69.00;;;;;;5102938;28;20196;-80
2021/04/01 10:53:23;;;;;;;25.33;13.18;;;20.50;67.20;;;;;;5086533;27;20272;-81
2021/04/01 10:56:00;;;;;;;18.88;12.00;;;20.40;67.10;;;;;;5099213;27;20200;-79
2021/04/01 10:58:28;;;;;;;22.80;12.88;;;20.60;66.10;;;;;;5107676;28;20192;-83
2021/04/01 11:00:59;;;;;;;22.27;13.18;;;20.60;66.10;;;;;;5101218;27;20561;-80
2021/04/01 11:03:37;;;;;;;22.55;11.70;;;20.70;66.30;;;;;;5106217;27;20224;-82
2021/04/01 11:06:07;;;;;;;21.25;11.80;;;20.80;65.50;;;;;;5106349;28;21046;-83
2021/04/01 11:08:41;;;;;;;25.67;13.40;;;21.00;65.10;;;;;;5102069;28;20578;-80
2021/04/01 11:11:10;;;;;;;22.50;12.40;;;21.20;64.20;;;;;;5107924;27;20207;-79
2021/04/01 11:13:41;;;;;;;19.10;11.50;;;21.40;63.30;;;;;;5103308;28;22048;-83
2021/04/01 11:16:10;;;;;;;21.63;11.48;;;21.50;63.10;;;;;;5099091;28;20226;-81
2021/04/01 11:18:44;;;;;;;19.42;11.18;;;21.60;62.80;;;;;;5091132;27;20200;-81
2021/04/01 11:21:13;;;;;;;16.20;10.27;;;21.80;62.20;;;;;;5088760;27;20629;-81
2021/04/01 11:23:42;;;;;;;19.88;11.07;;;21.90;61.10;;;;;;5103129;28;20232;-83
2021/04/01 11:26:10;;;;;;;21.33;11.40;;;21.80;58.40;;;;;;5098213;27;20496;-82
2021/04/01 11:28:42;;;;;;;19.98;10.98;;;21.70;59.50;;;;;;5103043;28;20566;-85
2021/04/01 11:31:11;;;;;;;20.67;11.63;;;21.70;57.10;;;;;;5099990;28;20318;-82
2021/04/01 11:33:39;;;;;;;18.65;11.00;;;21.50;55.10;;;;;;5097952;27;20728;-81
2021/04/01 11:36:15;;;;;;;16.45;10.27;;;21.20;55.60;;;;;;5095201;27;20428;-81
2021/04/01 11:38:49;;;;;;;18.65;10.52;;;21.30;56.40;;;;;;5092942;27;20226;-82
2021/04/01 11:41:18;;;;;;;21.35;10.40;;;21.40;54.10;;;;;;5102521;28;20300;-82
2021/04/01 11:43:50;;;;;;;17.80;10.65;;;21.60;54.00;;;;;;5112152;28;20223;-85
2021/04/01 11:46:22;;;;;;;15.27;10.23;;;21.70;54.60;;;;;;5105487;27;20212;-83
2021/04/01 11:48:52;;;;;;;20.48;10.90;;;21.80;52.20;;;;;;5094723;28;20198;-83
2021/04/01 11:51:22;;;;;;;16.23;10.38;;;21.90;53.00;;;;;;5095471;27;21098;-81
2021/04/01 11:53:51;;;;;;;13.13;9.07;;;21.90;52.20;;;;;;5109515;27;20261;-84
2021/04/01 11:56:19;;;;;;;19.27;10.80;;;21.70;48.00;;;;;;5111666;27;20231;-81
2021/04/01 11:58:47;;;;;;;19.85;11.18;;;21.50;49.10;;;;;;5114494;27;20196;-82
2021/04/01 12:01:20;;;;;;;17.88;11.85;;;21.30;51.90;;;;;;5103563;27;20672;-80
2021/04/01 12:03:54;;;;;;;20.35;12.98;;;21.20;53.90;;;;;;5101645;27;20232;-81
2021/04/01 12:06:24;;;;;;;21.67;11.73;;;21.20;54.80;;;;;;5096030;28;20207;-82
2021/04/01 12:08:53;;;;;;;19.08;12.38;;;21.30;56.20;;;;;;5095962;28;20200;-83
2021/04/01 12:11:21;;;;;;;21.88;12.73;;;21.20;55.10;;;;;;5091415;27;20195;-81
2021/04/01 12:13:49;;;;;;;21.70;11.80;;;21.30;55.40;;;;;;5085348;28;20192;-81
2021/04/01 12:16:18;;;;;;;22.13;12.52;;;21.50;54.40;;;;;;5087936;27;20573;-82
2021/04/01 12:18:47;;;;;;;17.35;11.25;;;21.30;54.40;;;;;;5101882;28;20207;-82
2021/04/01 12:21:16;;;;;;;18.58;12.25;;;21.30;53.40;;;;;;5094829;28;20208;-80
2021/04/01 12:23:46;;;;;;;20.05;12.30;;;21.30;52.10;;;;;;5093374;28;20228;-82
2021/04/01 12:26:14;;;;;;;18.70;12.20;;;21.20;53.20;;;;;;5092605;27;20204;-85
2021/04/01 12:28:43;;;;;;;17.95;11.20;;;21.20;52.50;;;;;;5099503;27;20210;-81
2021/04/01 12:31:15;;;;;;;20.98;13.05;;;21.20;53.30;;;;;;5093930;27;20448;-82
2021/04/01 12:33:52;;;;;;;20.17;13.55;;;21.20;51.70;;;;;;5087517;28;20203;-81
2021/04/01 12:36:30;;;;;;;21.55;14.10;;;21.40;52.00;;;;;;5090006;28;20200;-81
2021/04/01 12:39:04;;;;;;;22.42;13.07;;;21.40;51.80;;;;;;5090779;27;20196;-82
2021/04/01 12:41:34;;;;;;;20.58;13.32;;;21.50;48.50;;;;;;5086295;28;21038;-82
2021/04/01 12:44:02;;;;;;;17.25;11.77;;;21.50;49.00;;;;;;5087989;28;20711;-83
2021/04/01 12:46:38;;;;;;;20.42;13.05;;;21.60;48.00;;;;;;5091417;28;20218;-81
2021/04/01 12:49:07;;;;;;;19.63;12.20;;;21.40;47.80;;;;;;5097603;28;20238;-81
2021/04/01 12:51:43;;;;;;;20.15;12.18;;;21.30;48.50;;;;;;5093985;28;20578;-83
2021/04/01 12:54:14;;;;;;;15.40;10.38;;;21.40;48.20;;;;;;5094273;28;20226;-80
2021/04/01 12:56:46;;;;;;;15.57;10.48;;;21.30;42.90;;;;;;5098565;28;20204;-82
2021/04/01 12:59:17;;;;;;;20.00;11.40;;;21.40;43.80;;;;;;5092534;28;20200;-82
2021/04/01 13:01:47;;;;;;;22.25;12.77;;;21.50;44.40;;;;;;5095727;28;20212;-82
2021/04/01 13:04:18;;;;;;;23.88;12.35;;;21.50;44.80;;;;;;5093446;27;20601;-83
2021/04/01 13:06:56;;;;;;;24.55;13.27;;;21.50;45.30;;;;;;5101166;27;20661;-80
2021/04/01 13:09:32;;;;;;;24.55;13.43;;;21.50;46.00;;;;;;5105063;28;20728;-81
2021/04/01 13:12:10;;;;;;;19.73;13.00;;;21.30;46.00;;;;;;5108608;28;20219;-81
2021/04/01 13:14:39;;;;;;;19.23;13.02;;;21.30;45.60;;;;;;5109372;28;21318;-82
2021/04/01 13:17:07;;;;;;;23.75;13.90;;;21.10;45.60;;;;;;5109817;28;20911;-81
2021/04/01 13:19:36;;;;;;;20.98;14.18;;;21.10;46.40;;;;;;5120595;28;20510;-81
2021/04/01 13:22:11;;;;;;;22.48;13.25;;;21.10;46.50;;;;;;5119057;27;20177;-81
2021/04/01 13:24:54;;;;;;;22.38;14.18;;;21.00;47.00;;;;;;5119233;28;20200;-81
2021/04/01 13:27:24;;;;;;;23.25;14.02;;;20.90;47.10;;;;;;5118302;28;20195;-81
2021/04/01 13:29:55;;;;;;;22.23;13.75;;;20.90;47.20;;;;;;5111141;28;20222;-80
2021/04/01 13:32:31;;;;;;;22.27;13.55;;;20.80;47.40;;;;;;5109539;28;20451;-80
2021/04/01 13:35:04;;;;;;;22.83;13.73;;;20.80;48.00;;;;;;5113299;27;20195;-82
2021/04/01 13:37:35;;;;;;;21.60;13.63;;;20.80;48.40;;;;;;5105115;27;20758;-81
2021/04/01 13:40:09;;;;;;;20.55;12.57;;;20.90;48.40;;;;;;5111957;28;20234;-83
2021/04/01 13:42:40;;;;;;;15.82;9.90;;;20.90;48.10;;;;;;5103191;28;20243;-84